Sueca, Spain
Current Conditions -  °F | °C
As of 7:30 AM on Monday 24 Nov 2014 (Local Time) from LEVC Reporting Station
Few Clouds Few Clouds  
Wind Chill: 12°   Ceiling: Unl
Heat Index: 12°   Visibility: 6mi
Dew Point: 11°   Wind: 1mph
Humidity: 94%   Direction: NA
Pressure: 30"   Gusts: NA
Location:  39.2°N, 0.31°W
Report Text: LEVC 240630Z VRB01KT 9999 FEW030 12/11 Q1016 NOSIG
Loading
Personal Weather Stations






























Interactive Weather Map New forecast layout! Learn more

10-Day Weather Forecast

Advertisements
Track Severe Weather on mobile